sensor_id;sensor_type;location;lat;lon;timestamp;pressure;altitude;pressure_sealevel;temperature;humidity
15405;BME280;7801;48.124;11.590;2023-05-09T00:01:12;95781.19;;;13.80;74.37
15405;BME280;7801;48.124;11.590;2023-05-09T00:03:38;95776.91;;;13.70;74.54
15405;BME280;7801;48.124;11.590;2023-05-09T00:06:04;95777.59;;;13.62;74.88
15405;BME280;7801;48.124;11.590;2023-05-09T00:08:31;95778.63;;;13.39;75.74
15405;BME280;7801;48.124;11.590;2023-05-09T00:10:56;95777.94;;;13.47;75.75
15405;BME280;7801;48.124;11.590;2023-05-09T00:13:23;95771.03;;;13.46;75.71
15405;BME280;7801;48.124;11.590;2023-05-09T00:15:49;95768.22;;;13.51;74.85
15405;BME280;7801;48.124;11.590;2023-05-09T00:18:14;95767.00;;;13.35;75.30
15405;BME280;7801;48.124;11.590;2023-05-09T00:20:39;95767.62;;;13.54;74.83
15405;BME280;7801;48.124;11.590;2023-05-09T00:23:06;95768.84;;;13.48;74.47
15405;BME280;7801;48.124;11.590;2023-05-09T00:25:31;95766.84;;;13.54;74.05
15405;BME280;7801;48.124;11.590;2023-05-09T00:27:57;95761.84;;;13.38;74.94
15405;BME280;7801;48.124;11.590;2023-05-09T00:30:22;95760.12;;;13.56;73.69
15405;BME280;7801;48.124;11.590;2023-05-09T00:32:47;95764.97;;;13.54;73.45
15405;BME280;7801;48.124;11.590;2023-05-09T00:35:13;95762.31;;;13.54;73.43
15405;BME280;7801;48.124;11.590;2023-05-09T00:37:38;95758.00;;;13.31;73.95
15405;BME280;7801;48.124;11.590;2023-05-09T00:40:05;95752.88;;;13.48;73.33
15405;BME280;7801;48.124;11.590;2023-05-09T00:42:32;95750.91;;;13.40;73.65
15405;BME280;7801;48.124;11.590;2023-05-09T00:44:57;95757.22;;;13.44;73.50
15405;BME280;7801;48.124;11.590;2023-05-09T00:47:22;95749.91;;;13.36;73.80
15405;BME280;7801;48.124;11.590;2023-05-09T00:49:48;95750.41;;;13.38;73.53
15405;BME280;7801;48.124;11.590;2023-05-09T00:52:14;95751.88;;;13.44;73.15
15405;BME280;7801;48.124;11.590;2023-05-09T00:54:40;95753.75;;;13.44;73.51
15405;BME280;7801;48.124;11.590;2023-05-09T00:57:05;95751.88;;;13.44;73.82
15405;BME280;7801;48.124;11.590;2023-05-09T00:59:31;95745.19;;;13.33;74.38
15405;BME280;7801;48.124;11.590;2023-05-09T01:01:57;95750.16;;;13.26;74.80
15405;BME280;7801;48.124;11.590;2023-05-09T01:04:22;95742.66;;;13.28;74.70
15405;BME280;7801;48.124;11.590;2023-05-09T01:06:57;95747.59;;;13.21;74.75
15405;BME280;7801;48.124;11.590;2023-05-09T01:20:35;95734.16;;;12.98;75.49
15405;BME280;7801;48.124;11.590;2023-05-09T01:26:03;95729.53;;;13.04;75.15
15405;BME280;7801;48.124;11.590;2023-05-09T01:31:33;95723.91;;;12.92;75.73
15405;BME280;7801;48.124;11.590;2023-05-09T01:34:05;95725.69;;;12.96;75.89
15405;BME280;7801;48.124;11.590;2023-05-09T01:36:33;95718.69;;;13.00;75.04
15405;BME280;7801;48.124;11.590;2023-05-09T01:39:01;95718.37;;;13.02;74.87
15405;BME280;7801;48.124;11.590;2023-05-09T01:41:30;95715.81;;;12.97;74.70
15405;BME280;7801;48.124;11.590;2023-05-09T01:43:58;95716.59;;;13.11;74.17
15405;BME280;7801;48.124;11.590;2023-05-09T01:46:26;95721.84;;;13.02;74.57
15405;BME280;7801;48.124;11.590;2023-05-09T01:48:53;95717.50;;;12.93;74.64
15405;BME280;7801;48.124;11.590;2023-05-09T01:51:19;95717.50;;;13.06;74.72
15405;BME280;7801;48.124;11.590;2023-05-09T01:53:47;95720.56;;;13.00;75.00
15405;BME280;7801;48.124;11.590;2023-05-09T01:56:13;95715.25;;;12.72;75.75
15405;BME280;7801;48.124;11.590;2023-05-09T01:58:39;95706.66;;;12.89;75.81
15405;BME280;7801;48.124;11.590;2023-05-09T02:01:05;95711.13;;;12.80;76.03
15405;BME280;7801;48.124;11.590;2023-05-09T02:03:32;95709.75;;;12.83;76.22
15405;BME280;7801;48.124;11.590;2023-05-09T02:06:02;95708.66;;;12.84;76.18
15405;BME280;7801;48.124;11.590;2023-05-09T02:08:28;95703.91;;;12.81;76.24
15405;BME280;7801;48.124;11.590;2023-05-09T02:10:53;95708.34;;;12.85;75.69
15405;BME280;7801;48.124;11.590;2023-05-09T02:13:19;95709.94;;;12.86;75.74
15405;BME280;7801;48.124;11.590;2023-05-09T02:15:45;95710.53;;;12.83;75.79
15405;BME280;7801;48.124;11.590;2023-05-09T02:18:11;95709.03;;;12.77;75.95
15405;BME280;7801;48.124;11.590;2023-05-09T02:20:38;95700.06;;;12.73;76.33
15405;BME280;7801;48.124;11.590;2023-05-09T02:23:03;95705.38;;;12.73;76.48
15405;BME280;7801;48.124;11.590;2023-05-09T02:25:29;95698.69;;;12.76;76.11
15405;BME280;7801;48.124;11.590;2023-05-09T02:27:57;95693.75;;;12.69;76.69
15405;BME280;7801;48.124;11.590;2023-05-09T02:30:25;95694.84;;;12.68;76.69
15405;BME280;7801;48.124;11.590;2023-05-09T02:32:55;95696.63;;;12.59;76.86
15405;BME280;7801;48.124;11.590;2023-05-09T02:35:23;95695.16;;;12.53;77.86
15405;BME280;7801;48.124;11.590;2023-05-09T02:37:50;95689.44;;;12.59;77.16
15405;BME280;7801;48.124;11.590;2023-05-09T02:40:17;95691.72;;;12.66;76.85
15405;BME280;7801;48.124;11.590;2023-05-09T02:42:43;95687.84;;;12.31;77.77
15405;BME280;7801;48.124;11.590;2023-05-09T02:45:09;95687.25;;;12.48;77.25
15405;BME280;7801;48.124;11.590;2023-05-09T02:47:35;95684.12;;;12.46;77.39
15405;BME280;7801;48.124;11.590;2023-05-09T02:50:01;95682.84;;;12.43;77.52
15405;BME280;7801;48.124;11.590;2023-05-09T02:52:26;95680.56;;;12.50;77.12
15405;BME280;7801;48.124;11.590;2023-05-09T02:54:51;95685.22;;;12.45;77.24
15405;BME280;7801;48.124;11.590;2023-05-09T02:57:17;95671.13;;;12.44;77.09
15405;BME280;7801;48.124;11.590;2023-05-09T02:59:42;95676.59;;;12.48;77.09
15405;BME280;7801;48.124;11.590;2023-05-09T03:02:07;95671.41;;;12.43;77.10
15405;BME280;7801;48.124;11.590;2023-05-09T03:04:34;95673.47;;;12.18;78.27
15405;BME280;7801;48.124;11.590;2023-05-09T03:06:59;95669.09;;;12.09;79.28
15405;BME280;7801;48.124;11.590;2023-05-09T03:09:25;95670.72;;;12.23;78.11
15405;BME280;7801;48.124;11.590;2023-05-09T03:11:50;95669.50;;;12.29;77.73
15405;BME280;7801;48.124;11.590;2023-05-09T03:14:16;95663.81;;;12.36;77.50
15405;BME280;7801;48.124;11.590;2023-05-09T03:16:41;95672.75;;;12.26;78.02
15405;BME280;7801;48.124;11.590;2023-05-09T03:19:07;95671.97;;;12.12;78.96
15405;BME280;7801;48.124;11.590;2023-05-09T03:21:32;95676.62;;;12.20;78.23
15405;BME280;7801;48.124;11.590;2023-05-09T03:23:58;95660.56;;;12.25;77.95
15405;BME280;7801;48.124;11.590;2023-05-09T03:26:23;95673.25;;;12.28;77.62
15405;BME280;7801;48.124;11.590;2023-05-09T03:28:50;95672.28;;;12.24;77.72
15405;BME280;7801;48.124;11.590;2023-05-09T03:31:16;95668.56;;;12.25;77.51
15405;BME280;7801;48.124;11.590;2023-05-09T03:33:41;95662.13;;;12.26;77.34
15405;BME280;7801;48.124;11.590;2023-05-09T03:36:07;95662.81;;;12.18;77.69
15405;BME280;7801;48.124;11.590;2023-05-09T03:38:32;95668.94;;;12.19;78.01
15405;BME280;7801;48.124;11.590;2023-05-09T03:40:58;95667.13;;;12.00;79.29
15405;BME280;7801;48.124;11.590;2023-05-09T03:43:23;95664.34;;;11.92;79.76
15405;BME280;7801;48.124;11.590;2023-05-09T03:45:48;95666.31;;;11.86;79.57
15405;BME280;7801;48.124;11.590;2023-05-09T03:48:14;95663.28;;;11.93;78.83
15405;BME280;7801;48.124;11.590;2023-05-09T03:50:40;95670.09;;;11.99;78.63
15405;BME280;7801;48.124;11.590;2023-05-09T03:53:05;95669.31;;;12.12;78.13
15405;BME280;7801;48.124;11.590;2023-05-09T03:55:31;95664.69;;;12.04;78.22
15405;BME280;7801;48.124;11.590;2023-05-09T03:57:56;95671.19;;;12.12;77.78
15405;BME280;7801;48.124;11.590;2023-05-09T04:00:21;95665.66;;;12.08;77.77
15405;BME280;7801;48.124;11.590;2023-05-09T04:02:47;95663.69;;;12.00;78.09
15405;BME280;7801;48.124;11.590;2023-05-09T04:05:13;95670.19;;;11.75;79.02
15405;BME280;7801;48.124;11.590;2023-05-09T04:07:40;95669.78;;;11.68;79.28
15405;BME280;7801;48.124;11.590;2023-05-09T04:10:05;95669.38;;;11.80;79.33
15405;BME280;7801;48.124;11.590;2023-05-09T04:12:31;95674.50;;;11.71;79.67
15405;BME280;7801;48.124;11.590;2023-05-09T04:14:57;95667.72;;;11.84;79.25
15405;BME280;7801;48.124;11.590;2023-05-09T04:17:22;95678.72;;;11.77;79.91
15405;BME280;7801;48.124;11.590;2023-05-09T04:19:48;95675.50;;;11.75;79.83
15405;BME280;7801;48.124;11.590;2023-05-09T04:22:13;95677.06;;;11.62;80.67
15405;BME280;7801;48.124;11.590;2023-05-09T04:24:38;95678.34;;;11.84;79.72
15405;BME280;7801;48.124;11.590;2023-05-09T04:27:04;95676.56;;;11.93;79.31
15405;BME280;7801;48.124;11.590;2023-05-09T04:29:29;95686.03;;;11.99;79.15
15405;BME280;7801;48.124;11.590;2023-05-09T04:31:55;95673.25;;;12.01;79.08
15405;BME280;7801;48.124;11.590;2023-05-09T04:34:20;95675.22;;;12.09;78.83
15405;BME280;7801;48.124;11.590;2023-05-09T04:36:46;95670.88;;;12.13;78.90
15405;BME280;7801;48.124;11.590;2023-05-09T04:39:11;95678.28;;;12.16;83.86
15405;BME280;7801;48.124;11.590;2023-05-09T04:41:37;95677.81;;;12.55;91.68
15405;BME280;7801;48.124;11.590;2023-05-09T04:44:02;95674.94;;;12.65;90.73
15405;BME280;7801;48.124;11.590;2023-05-09T04:46:27;95668.72;;;12.70;88.35
15405;BME280;7801;48.124;11.590;2023-05-09T04:48:53;95664.53;;;13.05;90.29
15405;BME280;7801;48.124;11.590;2023-05-09T04:51:18;95666.94;;;12.79;88.54
15405;BME280;7801;48.124;11.590;2023-05-09T04:53:43;95663.16;;;13.07;88.80
15405;BME280;7801;48.124;11.590;2023-05-09T04:56:10;95662.66;;;13.05;87.66
15405;BME280;7801;48.124;11.590;2023-05-09T04:58:35;95664.09;;;13.12;85.78
15405;BME280;7801;48.124;11.590;2023-05-09T05:01:04;95656.78;;;13.53;86.80
15405;BME280;7801;48.124;11.590;2023-05-09T05:03:30;95660.06;;;13.28;84.17
15405;BME280;7801;48.124;11.590;2023-05-09T05:05:56;95665.00;;;13.21;84.88
15405;BME280;7801;48.124;11.590;2023-05-09T05:08:22;95658.41;;;13.40;84.89
15405;BME280;7801;48.124;11.590;2023-05-09T05:10:47;95652.97;;;13.46;86.19
15405;BME280;7801;48.124;11.590;2023-05-09T05:13:13;95651.13;;;13.55;82.40
15405;BME280;7801;48.124;11.590;2023-05-09T05:15:39;95660.53;;;13.52;84.05
15405;BME280;7801;48.124;11.590;2023-05-09T05:18:05;95650.53;;;13.58;82.81
15405;BME280;7801;48.124;11.590;2023-05-09T05:20:30;95646.28;;;13.57;82.07
15405;BME280;7801;48.124;11.590;2023-05-09T05:22:56;95651.03;;;13.60;82.18
15405;BME280;7801;48.124;11.590;2023-05-09T05:25:24;95655.53;;;13.82;84.15
15405;BME280;7801;48.124;11.590;2023-05-09T05:27:49;95652.50;;;13.97;81.74
15405;BME280;7801;48.124;11.590;2023-05-09T05:30:14;95646.69;;;13.72;80.70
15405;BME280;7801;48.124;11.590;2023-05-09T05:32:40;95643.88;;;13.69;80.56
15405;BME280;7801;48.124;11.590;2023-05-09T05:35:06;95644.19;;;13.67;82.11
15405;BME280;7801;48.124;11.590;2023-05-09T05:37:31;95651.38;;;13.89;84.73
15405;BME280;7801;48.124;11.590;2023-05-09T05:39:57;95640.25;;;13.65;79.26
15405;BME280;7801;48.124;11.590;2023-05-09T05:42:22;95654.16;;;13.62;80.58
15405;BME280;7801;48.124;11.590;2023-05-09T05:44:47;95656.84;;;13.93;82.49
15405;BME280;7801;48.124;11.590;2023-05-09T05:47:13;95653.72;;;13.91;80.60
15405;BME280;7801;48.124;11.590;2023-05-09T05:49:38;95650.66;;;14.06;80.65
15405;BME280;7801;48.124;11.590;2023-05-09T05:52:03;95651.50;;;13.84;79.54
15405;BME280;7801;48.124;11.590;2023-05-09T05:54:29;95652.50;;;13.97;79.87
15405;BME280;7801;48.124;11.590;2023-05-09T05:56:54;95651.22;;;13.94;79.98
15405;BME280;7801;48.124;11.590;2023-05-09T05:59:20;95639.56;;;14.13;80.29
15405;BME280;7801;48.124;11.590;2023-05-09T06:01:45;95633.75;;;14.19;79.55
15405;BME280;7801;48.124;11.590;2023-05-09T06:04:10;95631.53;;;14.43;81.44
15405;BME280;7801;48.124;11.590;2023-05-09T06:06:36;95630.28;;;14.10;78.18
15405;BME280;7801;48.124;11.590;2023-05-09T06:09:01;95630.53;;;14.31;79.52
15405;BME280;7801;48.124;11.590;2023-05-09T06:11:26;95631.09;;;14.19;78.28
15405;BME280;7801;48.124;11.590;2023-05-09T06:13:52;95623.75;;;14.25;77.34
15405;BME280;7801;48.124;11.590;2023-05-09T06:16:17;95627.25;;;14.34;77.68
15405;BME280;7801;48.124;11.590;2023-05-09T06:18:43;95623.44;;;14.26;76.95
15405;BME280;7801;48.124;11.590;2023-05-09T06:21:08;95610.16;;;14.43;77.62
15405;BME280;7801;48.124;11.590;2023-05-09T06:23:33;95618.34;;;14.56;76.89
15405;BME280;7801;48.124;11.590;2023-05-09T06:26:01;95612.25;;;14.64;75.45
15405;BME280;7801;48.124;11.590;2023-05-09T06:28:27;95613.84;;;14.65;75.50
15405;BME280;7801;48.124;11.590;2023-05-09T06:30:52;95609.94;;;14.97;75.91
15405;BME280;7801;48.124;11.590;2023-05-09T06:33:17;95604.59;;;14.97;75.70
15405;BME280;7801;48.124;11.590;2023-05-09T06:35:43;95612.44;;;14.85;71.48
15405;BME280;7801;48.124;11.590;2023-05-09T06:38:08;95607.28;;;14.88;71.95
15405;BME280;7801;48.124;11.590;2023-05-09T06:40:33;95610.09;;;14.83;73.35
15405;BME280;7801;48.124;11.590;2023-05-09T06:42:59;95608.84;;;15.06;73.98
15405;BME280;7801;48.124;11.590;2023-05-09T06:45:24;95598.16;;;15.24;74.60
15405;BME280;7801;48.124;11.590;2023-05-09T06:47:51;95599.41;;;15.00;69.77
15405;BME280;7801;48.124;11.590;2023-05-09T06:50:16;95602.56;;;15.11;74.55
15405;BME280;7801;48.124;11.590;2023-05-09T06:52:41;95595.63;;;15.01;72.80
15405;BME280;7801;48.124;11.590;2023-05-09T06:55:07;95593.44;;;15.21;74.48
15405;BME280;7801;48.124;11.590;2023-05-09T06:57:33;95586.66;;;15.23;75.76
15405;BME280;7801;48.124;11.590;2023-05-09T06:59:58;95585.75;;;15.10;72.02
15405;BME280;7801;48.124;11.590;2023-05-09T07:02:24;95589.22;;;15.11;74.49
15405;BME280;7801;48.124;11.590;2023-05-09T07:04:49;95590.75;;;15.29;72.71
15405;BME280;7801;48.124;11.590;2023-05-09T07:07:15;95587.00;;;15.04;72.47
15405;BME280;7801;48.124;11.590;2023-05-09T07:09:40;95589.03;;;15.07;71.93
15405;BME280;7801;48.124;11.590;2023-05-09T07:12:06;95581.97;;;14.94;77.07
15405;BME280;7801;48.124;11.590;2023-05-09T07:14:31;95585.28;;;14.91;76.65
15405;BME280;7801;48.124;11.590;2023-05-09T07:16:56;95587.75;;;14.62;73.93
15405;BME280;7801;48.124;11.590;2023-05-09T07:19:22;95582.91;;;14.81;72.66
15405;BME280;7801;48.124;11.590;2023-05-09T07:21:47;95581.50;;;14.84;75.05
15405;BME280;7801;48.124;11.590;2023-05-09T07:24:12;95576.62;;;14.94;77.76
15405;BME280;7801;48.124;11.590;2023-05-09T07:26:38;95574.56;;;15.00;74.80
15405;BME280;7801;48.124;11.590;2023-05-09T07:29:03;95567.97;;;14.97;74.68
15405;BME280;7801;48.124;11.590;2023-05-09T07:31:29;95561.38;;;15.03;76.31
15405;BME280;7801;48.124;11.590;2023-05-09T07:33:54;95567.66;;;15.07;73.38
15405;BME280;7801;48.124;11.590;2023-05-09T07:36:19;95551.63;;;15.16;74.83
15405;BME280;7801;48.124;11.590;2023-05-09T07:38:45;95560.28;;;15.04;74.59
15405;BME280;7801;48.124;11.590;2023-05-09T07:41:13;95553.03;;;15.05;74.45
15405;BME280;7801;48.124;11.590;2023-05-09T07:43:41;95553.84;;;15.14;73.81
15405;BME280;7801;48.124;11.590;2023-05-09T07:46:06;95554.56;;;15.49;72.59
15405;BME280;7801;48.124;11.590;2023-05-09T07:48:32;95547.09;;;15.80;74.47
15405;BME280;7801;48.124;11.590;2023-05-09T07:50:57;95546.81;;;15.73;71.57
15405;BME280;7801;48.124;11.590;2023-05-09T07:53:23;95544.53;;;15.93;72.47
15405;BME280;7801;48.124;11.590;2023-05-09T07:55:48;95537.03;;;16.15;73.71
15405;BME280;7801;48.124;11.590;2023-05-09T07:58:16;95538.75;;;16.20;73.27
15405;BME280;7801;48.124;11.590;2023-05-09T08:00:42;95537.81;;;16.16;72.38
15405;BME280;7801;48.124;11.590;2023-05-09T08:03:07;95535.94;;;16.67;75.29
15405;BME280;7801;48.124;11.590;2023-05-09T08:05:33;95539.00;;;16.57;72.36
15405;BME280;7801;48.124;11.590;2023-05-09T08:07:58;95528.59;;;16.55;72.92
15405;BME280;7801;48.124;11.590;2023-05-09T08:10:23;95523.72;;;16.57;74.26
15405;BME280;7801;48.124;11.590;2023-05-09T08:12:51;95523.03;;;16.39;71.31
15405;BME280;7801;48.124;11.590;2023-05-09T08:15:16;95519.37;;;16.44;70.61
15405;BME280;7801;48.124;11.590;2023-05-09T08:17:42;95506.78;;;16.65;73.07
15405;BME280;7801;48.124;11.590;2023-05-09T08:20:07;95514.78;;;16.74;72.23
15405;BME280;7801;48.124;11.590;2023-05-09T08:22:33;95504.69;;;16.92;71.66
15405;BME280;7801;48.124;11.590;2023-05-09T08:24:58;95507.78;;;16.81;71.11
15405;BME280;7801;48.124;11.590;2023-05-09T08:27:23;95510.22;;;16.74;70.16
15405;BME280;7801;48.124;11.590;2023-05-09T08:29:49;95505.59;;;16.54;70.94
15405;BME280;7801;48.124;11.590;2023-05-09T08:32:14;95501.53;;;16.27;71.92
15405;BME280;7801;48.124;11.590;2023-05-09T08:34:39;95498.25;;;16.22;73.16
15405;BME280;7801;48.124;11.590;2023-05-09T08:37:05;95498.38;;;16.25;72.56
15405;BME280;7801;48.124;11.590;2023-05-09T08:39:30;95489.97;;;16.35;72.01
15405;BME280;7801;48.124;11.590;2023-05-09T08:41:58;95490.69;;;16.44;72.43
15405;BME280;7801;48.124;11.590;2023-05-09T08:44:25;95488.34;;;16.43;72.27
15405;BME280;7801;48.124;11.590;2023-05-09T08:46:51;95487.13;;;16.40;73.13
15405;BME280;7801;48.124;11.590;2023-05-09T08:49:19;95488.00;;;16.44;73.49
15405;BME280;7801;48.124;11.590;2023-05-09T08:51:47;95478.69;;;16.50;73.10
15405;BME280;7801;48.124;11.590;2023-05-09T08:54:13;95480.53;;;16.59;73.26
15405;BME280;7801;48.124;11.590;2023-05-09T08:56:39;95481.97;;;16.56;73.95
15405;BME280;7801;48.124;11.590;2023-05-09T08:59:05;95474.44;;;16.49;73.26
15405;BME280;7801;48.124;11.590;2023-05-09T09:01:32;95468.63;;;16.47;72.70
15405;BME280;7801;48.124;11.590;2023-05-09T09:04:00;95470.47;;;16.56;72.32
15405;BME280;7801;48.124;11.590;2023-05-09T09:06:27;95462.66;;;16.63;72.43
15405;BME280;7801;48.124;11.590;2023-05-09T09:08:54;95455.81;;;16.53;72.31
15405;BME280;7801;48.124;11.590;2023-05-09T09:11:21;95457.13;;;16.68;72.30
15405;BME280;7801;48.124;11.590;2023-05-09T09:13:49;95454.75;;;16.87;71.57
15405;BME280;7801;48.124;11.590;2023-05-09T09:16:19;95448.09;;;16.93;71.52
15405;BME280;7801;48.124;11.590;2023-05-09T09:18:45;95443.63;;;16.97;71.74
15405;BME280;7801;48.124;11.590;2023-05-09T09:21:14;95445.22;;;17.10;70.22
15405;BME280;7801;48.124;11.590;2023-05-09T09:23:44;95449.41;;;16.87;71.39
15405;BME280;7801;48.124;11.590;2023-05-09T09:26:12;95446.13;;;17.02;70.63
15405;BME280;7801;48.124;11.590;2023-05-09T09:28:37;95440.19;;;16.97;70.87
15405;BME280;7801;48.124;11.590;2023-05-09T09:31:21;95435.94;;;17.08;70.41
15405;BME280;7801;48.124;11.590;2023-05-09T09:33:47;95436.44;;;17.22;70.34
15405;BME280;7801;48.124;11.590;2023-05-09T09:36:12;95420.03;;;17.24;69.94
15405;BME280;7801;48.124;11.590;2023-05-09T09:38:41;95424.94;;;17.34;69.13
15405;BME280;7801;48.124;11.590;2023-05-09T09:41:11;95414.66;;;17.36;69.78
15405;BME280;7801;48.124;11.590;2023-05-09T09:43:37;95419.16;;;17.44;70.50
15405;BME280;7801;48.124;11.590;2023-05-09T09:46:03;95405.97;;;17.51;71.14
15405;BME280;7801;48.124;11.590;2023-05-09T09:48:34;95398.03;;;17.55;70.33
15405;BME280;7801;48.124;11.590;2023-05-09T09:51:10;95393.91;;;17.69;69.94
15405;BME280;7801;48.124;11.590;2023-05-09T09:53:39;95398.50;;;17.81;68.90
15405;BME280;7801;48.124;11.590;2023-05-09T09:56:05;95395.25;;;17.63;69.12
15405;BME280;7801;48.124;11.590;2023-05-09T09:58:31;95388.31;;;17.62;69.30
15405;BME280;7801;48.124;11.590;2023-05-09T10:01:06;95385.53;;;17.71;69.59
15405;BME280;7801;48.124;11.590;2023-05-09T10:06:01;95370.44;;;17.78;69.48
15405;BME280;7801;48.124;11.590;2023-05-09T10:08:27;95367.28;;;17.89;69.63
15405;BME280;7801;48.124;11.590;2023-05-09T10:10:52;95372.63;;;18.01;70.07
15405;BME280;7801;48.124;11.590;2023-05-09T10:13:17;95371.84;;;18.00;69.19
15405;BME280;7801;48.124;11.590;2023-05-09T10:15:43;95365.31;;;18.13;68.92
15405;BME280;7801;48.124;11.590;2023-05-09T10:18:09;95360.59;;;18.23;67.94
15405;BME280;7801;48.124;11.590;2023-05-09T10:20:36;95362.16;;;18.24;68.99
15405;BME280;7801;48.124;11.590;2023-05-09T10:23:05;95351.94;;;18.29;67.82
15405;BME280;7801;48.124;11.590;2023-05-09T10:25:38;95348.50;;;18.29;68.40
15405;BME280;7801;48.124;11.590;2023-05-09T10:28:11;95343.13;;;18.29;67.65
15405;BME280;7801;48.124;11.590;2023-05-09T10:30:49;95340.81;;;18.15;68.38
15405;BME280;7801;48.124;11.590;2023-05-09T10:33:19;95332.97;;;18.22;69.13
15405;BME280;7801;48.124;11.590;2023-05-09T10:35:48;95329.34;;;18.30;68.24
15405;BME280;7801;48.124;11.590;2023-05-09T10:38:15;95325.53;;;18.31;68.41
15405;BME280;7801;48.124;11.590;2023-05-09T10:40:40;95330.66;;;18.36;67.88
15405;BME280;7801;48.124;11.590;2023-05-09T10:43:06;95325.66;;;18.50;67.74
15405;BME280;7801;48.124;11.590;2023-05-09T10:45:33;95324.81;;;18.46;67.99
15405;BME280;7801;48.124;11.590;2023-05-09T10:48:00;95321.16;;;18.39;67.85
15405;BME280;7801;48.124;11.590;2023-05-09T10:50:30;95319.00;;;18.44;68.03
15405;BME280;7801;48.124;11.590;2023-05-09T10:55:51;95306.06;;;18.34;67.89
15405;BME280;7801;48.124;11.590;2023-05-09T10:58:30;95304.00;;;18.43;67.69
15405;BME280;7801;48.124;11.590;2023-05-09T11:00:59;95292.09;;;18.29;68.20
15405;BME280;7801;48.124;11.590;2023-05-09T11:03:26;95292.28;;;18.36;68.51
15405;BME280;7801;48.124;11.590;2023-05-09T11:05:54;95282.13;;;18.29;67.93
15405;BME280;7801;48.124;11.590;2023-05-09T11:08:24;95284.91;;;18.33;67.77
15405;BME280;7801;48.124;11.590;2023-05-09T11:10:51;95284.97;;;18.48;67.39
15405;BME280;7801;48.124;11.590;2023-05-09T11:13:21;95272.03;;;18.54;67.44
15405;BME280;7801;48.124;11.590;2023-05-09T11:18:26;95261.41;;;18.73;66.58
15405;BME280;7801;48.124;11.590;2023-05-09T11:20:53;95263.84;;;18.78;66.36
15405;BME280;7801;48.124;11.590;2023-05-09T11:23:19;95248.16;;;18.80;66.11
15405;BME280;7801;48.124;11.590;2023-05-09T11:25:46;95249.88;;;18.73;66.95
15405;BME280;7801;48.124;11.590;2023-05-09T11:28:25;95238.97;;;18.81;66.96
15405;BME280;7801;48.124;11.590;2023-05-09T11:30:52;95226.75;;;18.84;67.38
15405;BME280;7801;48.124;11.590;2023-05-09T11:33:26;95225.97;;;18.83;66.40
15405;BME280;7801;48.124;11.590;2023-05-09T11:36:20;95223.63;;;18.82;66.99
15405;BME280;7801;48.124;11.590;2023-05-09T11:39:08;95230.47;;;18.79;67.37
15405;BME280;7801;48.124;11.590;2023-05-09T11:41:45;95213.56;;;18.79;66.87
15405;BME280;7801;48.124;11.590;2023-05-09T11:44:21;95221.87;;;18.90;66.85
15405;BME280;7801;48.124;11.590;2023-05-09T11:46:48;95213.31;;;18.84;66.71
15405;BME280;7801;48.124;11.590;2023-05-09T11:49:14;95218.06;;;18.91;66.71
15405;BME280;7801;48.124;11.590;2023-05-09T11:51:39;95213.19;;;18.96;65.92
15405;BME280;7801;48.124;11.590;2023-05-09T11:54:06;95202.78;;;18.95;66.35
15405;BME280;7801;48.124;11.590;2023-05-09T11:56:39;95199.84;;;19.00;66.54
15405;BME280;7801;48.124;11.590;2023-05-09T11:59:05;95203.47;;;19.07;65.94
15405;BME280;7801;48.124;11.590;2023-05-09T12:01:31;95192.81;;;18.95;65.71
15405;BME280;7801;48.124;11.590;2023-05-09T12:03:57;95195.84;;;19.09;66.43
15405;BME280;7801;48.124;11.590;2023-05-09T12:06:23;95197.41;;;19.10;66.10
15405;BME280;7801;48.124;11.590;2023-05-09T12:08:50;95191.28;;;19.13;66.60
15405;BME280;7801;48.124;11.590;2023-05-09T12:11:16;95181.47;;;19.21;66.39
15405;BME280;7801;48.124;11.590;2023-05-09T12:13:48;95182.13;;;19.34;65.00
15405;BME280;7801;48.124;11.590;2023-05-09T12:16:15;95175.69;;;19.38;65.14
15405;BME280;7801;48.124;11.590;2023-05-09T12:18:51;95167.84;;;19.49;64.63
15405;BME280;7801;48.124;11.590;2023-05-09T12:21:18;95170.06;;;19.63;64.72
15405;BME280;7801;48.124;11.590;2023-05-09T12:23:45;95156.19;;;19.61;64.16
15405;BME280;7801;48.124;11.590;2023-05-09T12:26:11;95153.53;;;19.45;64.09
15405;BME280;7801;48.124;11.590;2023-05-09T12:28:37;95149.03;;;19.49;65.03
15405;BME280;7801;48.124;11.590;2023-05-09T12:31:03;95149.03;;;19.49;64.90
15405;BME280;7801;48.124;11.590;2023-05-09T12:33:31;95140.44;;;19.43;65.21
15405;BME280;7801;48.124;11.590;2023-05-09T12:36:09;95136.84;;;19.55;64.11
15405;BME280;7801;48.124;11.590;2023-05-09T12:38:36;95129.63;;;19.59;64.91
15405;BME280;7801;48.124;11.590;2023-05-09T12:41:05;95130.91;;;19.65;64.61
15405;BME280;7801;48.124;11.590;2023-05-09T12:43:36;95130.13;;;19.65;64.15
15405;BME280;7801;48.124;11.590;2023-05-09T12:46:02;95119.66;;;19.60;64.65
15405;BME280;7801;48.124;11.590;2023-05-09T12:48:29;95118.44;;;19.57;64.73
15405;BME280;7801;48.124;11.590;2023-05-09T12:51:01;95122.34;;;19.60;64.13
15405;BME280;7801;48.124;11.590;2023-05-09T12:53:28;95105.34;;;19.55;64.84
15405;BME280;7801;48.124;11.590;2023-05-09T12:56:03;95105.56;;;19.66;64.15
15405;BME280;7801;48.124;11.590;2023-05-09T12:58:32;95103.00;;;19.73;64.49
15405;BME280;7801;48.124;11.590;2023-05-09T13:00:58;95105.72;;;19.77;64.21
15405;BME280;7801;48.124;11.590;2023-05-09T13:03:25;95091.81;;;19.71;64.88
15405;BME280;7801;48.124;11.590;2023-05-09T13:06:00;95089.72;;;19.84;63.91
15405;BME280;7801;48.124;11.590;2023-05-09T13:08:26;95089.53;;;19.73;64.18
15405;BME280;7801;48.124;11.590;2023-05-09T13:10:52;95083.41;;;19.76;63.83
15405;BME280;7801;48.124;11.590;2023-05-09T13:13:23;95078.47;;;19.78;63.58
15405;BME280;7801;48.124;11.590;2023-05-09T13:15:51;95078.88;;;19.80;64.26
15405;BME280;7801;48.124;11.590;2023-05-09T13:18:16;95077.53;;;19.90;62.92
15405;BME280;7801;48.124;11.590;2023-05-09T13:20:41;95071.47;;;19.97;62.46
15405;BME280;7801;48.124;11.590;2023-05-09T13:23:07;95062.56;;;19.93;61.76